sensor_id;sensor_type;location;lat;lon;timestamp;P1;durP1;ratioP1;P2;durP2;ratioP2
39276;SDS011;63149;48.086;-1.606;2022-09-02T05:01:19;29.00;;;18.35;;
39276;SDS011;63149;48.086;-1.606;2022-09-02T05:03:47;29.75;;;19.48;;
39276;SDS011;63149;48.086;-1.606;2022-09-02T05:06:16;31.98;;;19.95;;
39276;SDS011;63149;48.086;-1.606;2022-09-02T05:08:45;38.22;;;22.80;;
39276;SDS011;63149;48.086;-1.606;2022-09-02T05:11:14;35.08;;;20.73;;
39276;SDS011;63149;48.086;-1.606;2022-09-02T05:13:43;32.88;;;21.70;;
39276;SDS011;63149;48.086;-1.606;2022-09-02T05:16:15;32.47;;;21.85;;
39276;SDS011;63149;48.086;-1.606;2022-09-02T05:18:45;34.92;;;23.77;;
39276;SDS011;63149;48.086;-1.606;2022-09-02T05:21:12;35.75;;;22.25;;
39276;SDS011;63149;48.086;-1.606;2022-09-02T05:23:41;31.50;;;21.08;;
39276;SDS011;63149;48.086;-1.606;2022-09-02T05:26:08;30.83;;;20.17;;
39276;SDS011;63149;48.086;-1.606;2022-09-02T05:28:37;29.83;;;18.80;;
39276;SDS011;63149;48.086;-1.606;2022-09-02T05:31:06;28.20;;;17.75;;
39276;SDS011;63149;48.086;-1.606;2022-09-02T05:33:38;26.90;;;18.98;;
39276;SDS011;63149;48.086;-1.606;2022-09-02T05:36:06;22.67;;;16.75;;
39276;SDS011;63149;48.086;-1.606;2022-09-02T05:38:36;28.70;;;17.33;;
39276;SDS011;63149;48.086;-1.606;2022-09-02T05:41:03;25.50;;;18.45;;
39276;SDS011;63149;48.086;-1.606;2022-09-02T05:43:33;28.92;;;19.00;;
39276;SDS011;63149;48.086;-1.606;2022-09-02T05:46:02;41.42;;;21.30;;
39276;SDS011;63149;48.086;-1.606;2022-09-02T05:48:32;35.75;;;19.60;;
39276;SDS011;63149;48.086;-1.606;2022-09-02T05:51:18;35.85;;;21.42;;
39276;SDS011;63149;48.086;-1.606;2022-09-02T05:53:45;30.52;;;19.55;;
39276;SDS011;63149;48.086;-1.606;2022-09-02T05:56:12;33.38;;;20.88;;
39276;SDS011;63149;48.086;-1.606;2022-09-02T05:58:39;38.08;;;21.95;;
39276;SDS011;63149;48.086;-1.606;2022-09-02T06:01:07;38.10;;;22.48;;
39276;SDS011;63149;48.086;-1.606;2022-09-02T06:03:34;40.38;;;23.75;;
39276;SDS011;63149;48.086;-1.606;2022-09-02T06:06:01;37.63;;;23.50;;
39276;SDS011;63149;48.086;-1.606;2022-09-02T06:08:30;40.78;;;25.27;;
39276;SDS011;63149;48.086;-1.606;2022-09-02T06:10:57;41.90;;;24.63;;
39276;SDS011;63149;48.086;-1.606;2022-09-02T06:13:25;43.15;;;26.77;;
39276;SDS011;63149;48.086;-1.606;2022-09-02T06:15:52;41.85;;;26.13;;
39276;SDS011;63149;48.086;-1.606;2022-09-02T06:18:19;37.88;;;24.88;;
39276;SDS011;63149;48.086;-1.606;2022-09-02T06:20:46;35.17;;;22.98;;
39276;SDS011;63149;48.086;-1.606;2022-09-02T06:23:13;32.08;;;21.67;;
39276;SDS011;63149;48.086;-1.606;2022-09-02T06:25:44;36.13;;;23.92;;
39276;SDS011;63149;48.086;-1.606;2022-09-02T06:28:12;36.88;;;25.05;;
39276;SDS011;63149;48.086;-1.606;2022-09-02T06:30:41;41.10;;;23.85;;
39276;SDS011;63149;48.086;-1.606;2022-09-02T06:33:09;38.22;;;24.20;;
39276;SDS011;63149;48.086;-1.606;2022-09-02T06:35:37;45.53;;;26.13;;
39276;SDS011;63149;48.086;-1.606;2022-09-02T06:38:05;39.58;;;25.20;;
39276;SDS011;63149;48.086;-1.606;2022-09-02T06:40:33;55.70;;;26.75;;
39276;SDS011;63149;48.086;-1.606;2022-09-02T06:43:01;58.67;;;27.95;;
39276;SDS011;63149;48.086;-1.606;2022-09-02T06:45:28;46.97;;;27.15;;
39276;SDS011;63149;48.086;-1.606;2022-09-02T06:47:55;45.30;;;26.40;;
39276;SDS011;63149;48.086;-1.606;2022-09-02T06:50:22;38.78;;;26.80;;
39276;SDS011;63149;48.086;-1.606;2022-09-02T06:52:49;38.75;;;27.42;;
39276;SDS011;63149;48.086;-1.606;2022-09-02T06:55:16;37.97;;;26.83;;
39276;SDS011;63149;48.086;-1.606;2022-09-02T06:57:43;35.05;;;24.85;;
39276;SDS011;63149;48.086;-1.606;2022-09-02T07:00:12;36.42;;;26.02;;
39276;SDS011;63149;48.086;-1.606;2022-09-02T07:02:40;33.70;;;25.02;;
39276;SDS011;63149;48.086;-1.606;2022-09-02T07:05:08;34.85;;;25.65;;
39276;SDS011;63149;48.086;-1.606;2022-09-02T07:07:35;34.95;;;26.38;;
39276;SDS011;63149;48.086;-1.606;2022-09-02T07:10:03;34.88;;;25.25;;
39276;SDS011;63149;48.086;-1.606;2022-09-02T07:12:32;34.70;;;25.27;;
39276;SDS011;63149;48.086;-1.606;2022-09-02T07:15:00;36.28;;;26.40;;
39276;SDS011;63149;48.086;-1.606;2022-09-02T07:17:28;32.72;;;23.98;;
39276;SDS011;63149;48.086;-1.606;2022-09-02T07:19:55;33.65;;;25.75;;
39276;SDS011;63149;48.086;-1.606;2022-09-02T07:22:24;37.22;;;26.23;;
39276;SDS011;63149;48.086;-1.606;2022-09-02T07:24:51;36.60;;;24.67;;
39276;SDS011;63149;48.086;-1.606;2022-09-02T07:27:18;34.05;;;25.15;;
39276;SDS011;63149;48.086;-1.606;2022-09-02T07:29:45;35.53;;;25.45;;
39276;SDS011;63149;48.086;-1.606;2022-09-02T07:32:13;35.55;;;26.17;;
39276;SDS011;63149;48.086;-1.606;2022-09-02T07:34:41;32.88;;;25.33;;
39276;SDS011;63149;48.086;-1.606;2022-09-02T07:37:08;33.30;;;24.50;;
39276;SDS011;63149;48.086;-1.606;2022-09-02T07:39:35;33.08;;;25.00;;
39276;SDS011;63149;48.086;-1.606;2022-09-02T07:42:02;33.83;;;25.23;;
39276;SDS011;63149;48.086;-1.606;2022-09-02T07:44:30;34.85;;;25.13;;
39276;SDS011;63149;48.086;-1.606;2022-09-02T07:46:57;36.35;;;26.40;;
39276;SDS011;63149;48.086;-1.606;2022-09-02T07:49:24;35.03;;;25.90;;
39276;SDS011;63149;48.086;-1.606;2022-09-02T07:51:53;39.22;;;27.77;;
39276;SDS011;63149;48.086;-1.606;2022-09-02T07:54:20;35.70;;;27.33;;
39276;SDS011;63149;48.086;-1.606;2022-09-02T07:56:49;38.97;;;29.35;;
39276;SDS011;63149;48.086;-1.606;2022-09-02T07:59:16;37.00;;;27.02;;
39276;SDS011;63149;48.086;-1.606;2022-09-02T08:01:45;38.72;;;28.25;;
39276;SDS011;63149;48.086;-1.606;2022-09-02T08:04:13;37.63;;;25.75;;
39276;SDS011;63149;48.086;-1.606;2022-09-02T08:06:42;35.17;;;25.77;;
39276;SDS011;63149;48.086;-1.606;2022-09-02T08:09:11;36.67;;;26.45;;
39276;SDS011;63149;48.086;-1.606;2022-09-02T08:11:38;37.25;;;25.48;;
39276;SDS011;63149;48.086;-1.606;2022-09-02T08:14:08;36.00;;;25.13;;
39276;SDS011;63149;48.086;-1.606;2022-09-02T08:16:37;36.80;;;25.83;;
39276;SDS011;63149;48.086;-1.606;2022-09-02T08:19:04;34.70;;;24.50;;
39276;SDS011;63149;48.086;-1.606;2022-09-02T08:21:31;33.22;;;24.33;;
39276;SDS011;63149;48.086;-1.606;2022-09-02T08:23:59;36.72;;;25.20;;
39276;SDS011;63149;48.086;-1.606;2022-09-02T08:26:27;35.72;;;25.23;;
39276;SDS011;63149;48.086;-1.606;2022-09-02T08:28:54;32.83;;;22.48;;
39276;SDS011;63149;48.086;-1.606;2022-09-02T08:31:21;37.83;;;26.20;;
39276;SDS011;63149;48.086;-1.606;2022-09-02T08:33:49;37.90;;;26.40;;
39276;SDS011;63149;48.086;-1.606;2022-09-02T08:36:15;36.97;;;23.33;;
39276;SDS011;63149;48.086;-1.606;2022-09-02T08:38:43;29.60;;;22.95;;
39276;SDS011;63149;48.086;-1.606;2022-09-02T08:41:15;31.70;;;21.60;;
39276;SDS011;63149;48.086;-1.606;2022-09-02T08:43:47;31.58;;;22.63;;
39276;SDS011;63149;48.086;-1.606;2022-09-02T08:46:16;28.67;;;22.27;;
39276;SDS011;63149;48.086;-1.606;2022-09-02T08:48:50;27.55;;;21.60;;
39276;SDS011;63149;48.086;-1.606;2022-09-02T08:51:26;27.27;;;20.80;;
39276;SDS011;63149;48.086;-1.606;2022-09-02T08:53:56;30.38;;;21.52;;
39276;SDS011;63149;48.086;-1.606;2022-09-02T08:56:28;27.23;;;20.48;;
39276;SDS011;63149;48.086;-1.606;2022-09-02T08:58:56;28.33;;;20.80;;
39276;SDS011;63149;48.086;-1.606;2022-09-02T09:01:28;25.88;;;20.63;;
39276;SDS011;63149;48.086;-1.606;2022-09-02T09:06:58;30.60;;;19.25;;
39276;SDS011;63149;48.086;-1.606;2022-09-02T09:09:39;25.25;;;20.42;;
39276;SDS011;63149;48.086;-1.606;2022-09-02T09:12:17;26.85;;;20.42;;
39276;SDS011;63149;48.086;-1.606;2022-09-02T09:14:56;27.85;;;19.38;;
39276;SDS011;63149;48.086;-1.606;2022-09-02T09:17:30;24.17;;;18.65;;
39276;SDS011;63149;48.086;-1.606;2022-09-02T09:20:04;30.13;;;20.75;;
39276;SDS011;63149;48.086;-1.606;2022-09-02T09:22:36;26.77;;;19.80;;
39276;SDS011;63149;48.086;-1.606;2022-09-02T09:25:05;25.70;;;20.77;;
39276;SDS011;63149;48.086;-1.606;2022-09-02T09:27:35;26.08;;;20.08;;
39276;SDS011;63149;48.086;-1.606;2022-09-02T09:30:05;24.15;;;18.90;;
39276;SDS011;63149;48.086;-1.606;2022-09-02T09:32:34;26.10;;;19.58;;
39276;SDS011;63149;48.086;-1.606;2022-09-02T09:35:05;23.75;;;18.98;;
39276;SDS011;63149;48.086;-1.606;2022-09-02T09:37:35;27.10;;;19.30;;
39276;SDS011;63149;48.086;-1.606;2022-09-02T09:40:19;24.85;;;19.33;;
39276;SDS011;63149;48.086;-1.606;2022-09-02T09:42:49;28.83;;;20.65;;
39276;SDS011;63149;48.086;-1.606;2022-09-02T09:45:25;27.08;;;20.40;;
39276;SDS011;63149;48.086;-1.606;2022-09-02T09:48:09;24.30;;;19.27;;
39276;SDS011;63149;48.086;-1.606;2022-09-02T09:53:44;25.60;;;21.43;;
39276;SDS011;63149;48.086;-1.606;2022-09-02T09:58:58;26.55;;;20.60;;
39276;SDS011;63149;48.086;-1.606;2022-09-02T10:01:28;30.13;;;20.73;;
39276;SDS011;63149;48.086;-1.606;2022-09-02T10:03:57;25.65;;;19.38;;
39276;SDS011;63149;48.086;-1.606;2022-09-02T10:06:35;27.00;;;20.10;;
39276;SDS011;63149;48.086;-1.606;2022-09-02T10:09:04;29.42;;;21.52;;
39276;SDS011;63149;48.086;-1.606;2022-09-02T10:11:53;30.00;;;22.58;;
39276;SDS011;63149;48.086;-1.606;2022-09-02T10:14:20;30.00;;;21.60;;
39276;SDS011;63149;48.086;-1.606;2022-09-02T10:16:51;27.00;;;21.13;;
39276;SDS011;63149;48.086;-1.606;2022-09-02T10:19:25;31.10;;;24.48;;
39276;SDS011;63149;48.086;-1.606;2022-09-02T10:22:11;35.40;;;22.52;;
39276;SDS011;63149;48.086;-1.606;2022-09-02T10:25:05;26.33;;;20.30;;
39276;SDS011;63149;48.086;-1.606;2022-09-02T10:27:39;28.75;;;20.90;;
39276;SDS011;63149;48.086;-1.606;2022-09-02T10:30:17;23.92;;;21.05;;
39276;SDS011;63149;48.086;-1.606;2022-09-02T10:32:54;27.27;;;20.73;;
39276;SDS011;63149;48.086;-1.606;2022-09-02T10:35:34;26.05;;;18.88;;
39276;SDS011;63149;48.086;-1.606;2022-09-02T10:38:11;34.92;;;22.60;;
39276;SDS011;63149;48.086;-1.606;2022-09-02T10:40:49;29.77;;;21.98;;
39276;SDS011;63149;48.086;-1.606;2022-09-02T10:43:25;28.05;;;20.92;;
39276;SDS011;63149;48.086;-1.606;2022-09-02T10:46:02;25.65;;;17.45;;
39276;SDS011;63149;48.086;-1.606;2022-09-02T10:48:39;26.55;;;19.63;;
39276;SDS011;63149;48.086;-1.606;2022-09-02T10:51:15;27.23;;;19.67;;
39276;SDS011;63149;48.086;-1.606;2022-09-02T10:53:51;31.20;;;19.67;;
39276;SDS011;63149;48.086;-1.606;2022-09-02T10:56:34;23.13;;;19.08;;
39276;SDS011;63149;48.086;-1.606;2022-09-02T10:59:06;28.50;;;20.45;;
39276;SDS011;63149;48.086;-1.606;2022-09-02T11:01:37;29.83;;;19.75;;
39276;SDS011;63149;48.086;-1.606;2022-09-02T11:04:12;25.67;;;18.98;;
39276;SDS011;63149;48.086;-1.606;2022-09-02T11:06:43;30.92;;;20.83;;
39276;SDS011;63149;48.086;-1.606;2022-09-02T11:09:13;29.75;;;19.23;;
39276;SDS011;63149;48.086;-1.606;2022-09-02T11:11:48;27.27;;;17.52;;
39276;SDS011;63149;48.086;-1.606;2022-09-02T11:14:19;24.48;;;16.20;;
39276;SDS011;63149;48.086;-1.606;2022-09-02T11:16:50;19.95;;;14.85;;
39276;SDS011;63149;48.086;-1.606;2022-09-02T11:19:24;18.98;;;12.32;;
39276;SDS011;63149;48.086;-1.606;2022-09-02T11:21:55;18.05;;;12.70;;
39276;SDS011;63149;48.086;-1.606;2022-09-02T11:24:28;14.90;;;10.57;;
39276;SDS011;63149;48.086;-1.606;2022-09-02T11:27:01;14.27;;;11.20;;
39276;SDS011;63149;48.086;-1.606;2022-09-02T11:29:35;17.33;;;12.60;;
39276;SDS011;63149;48.086;-1.606;2022-09-02T11:32:09;16.10;;;11.45;;
39276;SDS011;63149;48.086;-1.606;2022-09-02T11:34:45;19.23;;;12.20;;
39276;SDS011;63149;48.086;-1.606;2022-09-02T11:37:22;14.60;;;10.20;;
39276;SDS011;63149;48.086;-1.606;2022-09-02T11:39:55;16.88;;;9.60;;
39276;SDS011;63149;48.086;-1.606;2022-09-02T11:42:30;13.65;;;9.63;;
39276;SDS011;63149;48.086;-1.606;2022-09-02T11:54:24;11.77;;;8.10;;
39276;SDS011;63149;48.086;-1.606;2022-09-02T11:56:55;9.68;;;8.48;;
39276;SDS011;63149;48.086;-1.606;2022-09-02T12:02:31;12.40;;;8.50;;
39276;SDS011;63149;48.086;-1.606;2022-09-02T12:08:09;11.50;;;8.65;;
39276;SDS011;63149;48.086;-1.606;2022-09-02T12:10:56;12.02;;;9.57;;
39276;SDS011;63149;48.086;-1.606;2022-09-02T12:13:32;12.23;;;10.15;;
39276;SDS011;63149;48.086;-1.606;2022-09-02T12:19:16;13.20;;;10.23;;
39276;SDS011;63149;48.086;-1.606;2022-09-02T12:25:04;14.30;;;9.68;;
39276;SDS011;63149;48.086;-1.606;2022-09-02T12:27:46;14.82;;;10.00;;
39276;SDS011;63149;48.086;-1.606;2022-09-02T12:30:14;14.10;;;10.80;;
39276;SDS011;63149;48.086;-1.606;2022-09-02T12:33:27;13.68;;;10.23;;
39276;SDS011;63149;48.086;-1.606;2022-09-02T12:35:55;13.43;;;10.50;;
39276;SDS011;63149;48.086;-1.606;2022-09-02T12:38:33;16.90;;;11.20;;
39276;SDS011;63149;48.086;-1.606;2022-09-02T12:44:07;15.95;;;11.20;;
39276;SDS011;63149;48.086;-1.606;2022-09-02T12:46:56;12.45;;;10.48;;
39276;SDS011;63149;48.086;-1.606;2022-09-02T12:52:41;13.93;;;11.07;;
39276;SDS011;63149;48.086;-1.606;2022-09-02T12:55:21;18.23;;;11.63;;
39276;SDS011;63149;48.086;-1.606;2022-09-02T12:57:53;12.48;;;10.80;;
39276;SDS011;63149;48.086;-1.606;2022-09-02T13:00:32;14.18;;;10.88;;
39276;SDS011;63149;48.086;-1.606;2022-09-02T13:03:12;14.82;;;12.20;;
39276;SDS011;63149;48.086;-1.606;2022-09-02T13:08:39;17.02;;;10.00;;
39276;SDS011;63149;48.086;-1.606;2022-09-02T13:14:57;13.93;;;10.38;;
39276;SDS011;63149;48.086;-1.606;2022-09-02T13:23:36;14.52;;;9.95;;
39276;SDS011;63149;48.086;-1.606;2022-09-02T13:26:28;12.93;;;8.45;;
39276;SDS011;63149;48.086;-1.606;2022-09-02T13:29:15;15.65;;;9.32;;
39276;SDS011;63149;48.086;-1.606;2022-09-02T13:32:13;13.82;;;10.20;;
39276;SDS011;63149;48.086;-1.606;2022-09-02T13:34:46;11.88;;;8.43;;
39276;SDS011;63149;48.086;-1.606;2022-09-02T13:37:27;12.75;;;8.82;;
39276;SDS011;63149;48.086;-1.606;2022-09-02T13:39:56;13.48;;;8.63;;
39276;SDS011;63149;48.086;-1.606;2022-09-02T13:42:23;12.57;;;8.23;;
39276;SDS011;63149;48.086;-1.606;2022-09-02T13:47:35;12.90;;;9.63;;
39276;SDS011;63149;48.086;-1.606;2022-09-02T13:50:02;9.85;;;8.50;;
39276;SDS011;63149;48.086;-1.606;2022-09-02T13:52:31;15.32;;;9.88;;
39276;SDS011;63149;48.086;-1.606;2022-09-02T13:55:03;10.60;;;7.88;;
39276;SDS011;63149;48.086;-1.606;2022-09-02T13:57:32;9.60;;;6.35;;
39276;SDS011;63149;48.086;-1.606;2022-09-02T14:00:02;9.43;;;6.35;;
39276;SDS011;63149;48.086;-1.606;2022-09-02T14:02:32;7.90;;;6.00;;
39276;SDS011;63149;48.086;-1.606;2022-09-02T14:05:02;7.10;;;5.95;;
39276;SDS011;63149;48.086;-1.606;2022-09-02T14:07:32;5.93;;;4.88;;
39276;SDS011;63149;48.086;-1.606;2022-09-02T14:10:04;8.60;;;5.72;;
39276;SDS011;63149;48.086;-1.606;2022-09-02T14:12:35;10.38;;;4.75;;
39276;SDS011;63149;48.086;-1.606;2022-09-02T14:15:04;5.70;;;3.75;;
39276;SDS011;63149;48.086;-1.606;2022-09-02T14:17:34;5.95;;;4.30;;
39276;SDS011;63149;48.086;-1.606;2022-09-02T14:20:09;5.63;;;3.17;;
39276;SDS011;63149;48.086;-1.606;2022-09-02T14:22:46;7.40;;;3.53;;
39276;SDS011;63149;48.086;-1.606;2022-09-02T14:25:18;6.15;;;4.15;;
39276;SDS011;63149;48.086;-1.606;2022-09-02T14:27:47;5.18;;;3.47;;
39276;SDS011;63149;48.086;-1.606;2022-09-02T14:30:23;5.22;;;3.00;;
39276;SDS011;63149;48.086;-1.606;2022-09-02T14:35:58;3.00;;;2.75;;
39276;SDS011;63149;48.086;-1.606;2022-09-02T14:38:26;2.63;;;2.15;;
39276;SDS011;63149;48.086;-1.606;2022-09-02T14:40:58;2.72;;;2.28;;
39276;SDS011;63149;48.086;-1.606;2022-09-02T14:43:33;6.38;;;2.42;;
39276;SDS011;63149;48.086;-1.606;2022-09-02T14:46:06;3.42;;;2.30;;
39276;SDS011;63149;48.086;-1.606;2022-09-02T14:48:43;2.47;;;2.03;;
39276;SDS011;63149;48.086;-1.606;2022-09-02T14:51:17;4.18;;;2.08;;
39276;SDS011;63149;48.086;-1.606;2022-09-02T14:53:44;3.55;;;2.78;;
39276;SDS011;63149;48.086;-1.606;2022-09-02T14:56:11;3.72;;;2.17;;
39276;SDS011;63149;48.086;-1.606;2022-09-02T14:58:38;3.28;;;2.00;;
39276;SDS011;63149;48.086;-1.606;2022-09-02T15:01:05;2.28;;;1.90;;
39276;SDS011;63149;48.086;-1.606;2022-09-02T15:03:35;3.15;;;1.77;;
39276;SDS011;63149;48.086;-1.606;2022-09-02T15:06:04;3.45;;;1.83;;
39276;SDS011;63149;48.086;-1.606;2022-09-02T15:08:32;2.05;;;1.83;;
39276;SDS011;63149;48.086;-1.606;2022-09-02T15:10:58;4.78;;;1.77;;
39276;SDS011;63149;48.086;-1.606;2022-09-02T15:13:27;2.80;;;2.00;;
39276;SDS011;63149;48.086;-1.606;2022-09-02T15:15:57;4.63;;;2.50;;
39276;SDS011;63149;48.086;-1.606;2022-09-02T15:18:25;5.00;;;1.80;;
39276;SDS011;63149;48.086;-1.606;2022-09-02T15:20:52;3.88;;;1.98;;
39276;SDS011;63149;48.086;-1.606;2022-09-02T15:23:20;1.88;;;1.77;;
39276;SDS011;63149;48.086;-1.606;2022-09-02T15:25:48;2.10;;;1.88;;
39276;SDS011;63149;48.086;-1.606;2022-09-02T15:28:15;3.33;;;1.80;;
39276;SDS011;63149;48.086;-1.606;2022-09-02T15:30:42;2.50;;;2.00;;
39276;SDS011;63149;48.086;-1.606;2022-09-02T15:33:08;2.33;;;2.13;;
39276;SDS011;63149;48.086;-1.606;2022-09-02T15:35:35;2.95;;;2.10;;
39276;SDS011;63149;48.086;-1.606;2022-09-02T15:38:02;4.35;;;2.60;;
39276;SDS011;63149;48.086;-1.606;2022-09-02T15:40:31;4.28;;;2.13;;
39276;SDS011;63149;48.086;-1.606;2022-09-02T15:42:58;3.88;;;2.28;;
39276;SDS011;63149;48.086;-1.606;2022-09-02T15:45:25;2.15;;;1.95;;
39276;SDS011;63149;48.086;-1.606;2022-09-02T15:47:55;2.17;;;1.90;;
39276;SDS011;63149;48.086;-1.606;2022-09-02T15:50:22;4.85;;;2.53;;
39276;SDS011;63149;48.086;-1.606;2022-09-02T15:52:50;3.50;;;3.03;;
39276;SDS011;63149;48.086;-1.606;2022-09-02T15:55:17;3.90;;;2.90;;
39276;SDS011;63149;48.086;-1.606;2022-09-02T15:57:45;3.10;;;2.58;;
39276;SDS011;63149;48.086;-1.606;2022-09-02T16:00:13;5.03;;;2.88;;
39276;SDS011;63149;48.086;-1.606;2022-09-02T16:02:41;4.18;;;3.00;;
39276;SDS011;63149;48.086;-1.606;2022-09-02T16:05:08;4.82;;;3.20;;
39276;SDS011;63149;48.086;-1.606;2022-09-02T16:07:38;5.63;;;3.80;;
39276;SDS011;63149;48.086;-1.606;2022-09-02T16:10:05;5.45;;;3.50;;
39276;SDS011;63149;48.086;-1.606;2022-09-02T16:12:33;8.02;;;3.10;;
39276;SDS011;63149;48.086;-1.606;2022-09-02T16:15:01;4.68;;;3.10;;
39276;SDS011;63149;48.086;-1.606;2022-09-02T16:17:29;6.40;;;3.45;;
39276;SDS011;63149;48.086;-1.606;2022-09-02T16:19:56;4.43;;;2.88;;
39276;SDS011;63149;48.086;-1.606;2022-09-02T16:22:23;3.15;;;2.80;;
39276;SDS011;63149;48.086;-1.606;2022-09-02T16:24:50;4.25;;;3.65;;
39276;SDS011;63149;48.086;-1.606;2022-09-02T16:27:17;10.20;;;3.40;;
39276;SDS011;63149;48.086;-1.606;2022-09-02T16:30:06;5.30;;;3.10;;
39276;SDS011;63149;48.086;-1.606;2022-09-02T16:32:33;6.72;;;2.85;;
39276;SDS011;63149;48.086;-1.606;2022-09-02T16:35:00;7.68;;;2.83;;
39276;SDS011;63149;48.086;-1.606;2022-09-02T16:37:27;3.00;;;2.70;;
39276;SDS011;63149;48.086;-1.606;2022-09-02T16:39:54;3.05;;;2.75;;
39276;SDS011;63149;48.086;-1.606;2022-09-02T16:42:21;4.88;;;2.70;;
39276;SDS011;63149;48.086;-1.606;2022-09-02T16:44:48;3.40;;;2.30;;
39276;SDS011;63149;48.086;-1.606;2022-09-02T16:47:16;5.93;;;2.83;;
39276;SDS011;63149;48.086;-1.606;2022-09-02T16:49:43;3.42;;;2.53;;
39276;SDS011;63149;48.086;-1.606;2022-09-02T16:52:11;5.32;;;2.22;;
39276;SDS011;63149;48.086;-1.606;2022-09-02T16:54:38;5.85;;;2.50;;
39276;SDS011;63149;48.086;-1.606;2022-09-02T16:57:05;5.20;;;2.30;;
39276;SDS011;63149;48.086;-1.606;2022-09-02T16:59:32;4.47;;;2.10;;
39276;SDS011;63149;48.086;-1.606;2022-09-02T17:01:59;3.53;;;2.00;;
39276;SDS011;63149;48.086;-1.606;2022-09-02T17:04:27;3.03;;;2.42;;
39276;SDS011;63149;48.086;-1.606;2022-09-02T17:06:54;5.38;;;2.28;;
39276;SDS011;63149;48.086;-1.606;2022-09-02T17:09:21;4.40;;;1.80;;
39276;SDS011;63149;48.086;-1.606;2022-09-02T17:11:48;2.95;;;2.22;;
39276;SDS011;63149;48.086;-1.606;2022-09-02T17:14:16;4.47;;;1.95;;
39276;SDS011;63149;48.086;-1.606;2022-09-02T17:16:45;2.30;;;2.00;;
39276;SDS011;63149;48.086;-1.606;2022-09-02T17:19:15;3.05;;;1.98;;
39276;SDS011;63149;48.086;-1.606;2022-09-02T17:21:47;2.58;;;1.90;;
39276;SDS011;63149;48.086;-1.606;2022-09-02T17:24:16;2.83;;;1.98;;
39276;SDS011;63149;48.086;-1.606;2022-09-02T17:26:45;2.80;;;1.88;;
39276;SDS011;63149;48.086;-1.606;2022-09-02T17:29:15;2.30;;;2.03;;
39276;SDS011;63149;48.086;-1.606;2022-09-02T17:31:43;2.72;;;1.60;;
39276;SDS011;63149;48.086;-1.606;2022-09-02T17:34:11;2.95;;;1.48;;
39276;SDS011;63149;48.086;-1.606;2022-09-02T17:36:39;3.03;;;2.05;;
39276;SDS011;63149;48.086;-1.606;2022-09-02T17:39:09;2.95;;;1.80;;
39276;SDS011;63149;48.086;-1.606;2022-09-02T17:41:37;3.20;;;1.98;;
39276;SDS011;63149;48.086;-1.606;2022-09-02T17:44:19;2.63;;;2.00;;
39276;SDS011;63149;48.086;-1.606;2022-09-02T17:46:47;1.73;;;1.60;;
39276;SDS011;63149;48.086;-1.606;2022-09-02T17:49:14;3.85;;;2.25;;
39276;SDS011;63149;48.086;-1.606;2022-09-02T17:51:42;2.63;;;1.63;;
39276;SDS011;63149;48.086;-1.606;2022-09-02T17:54:11;2.22;;;1.60;;
39276;SDS011;63149;48.086;-1.606;2022-09-02T17:56:43;1.38;;;1.27;;
39276;SDS011;63149;48.086;-1.606;2022-09-02T17:59:35;3.45;;;1.65;;
39276;SDS011;63149;48.086;-1.606;2022-09-02T18:05:24;1.67;;;1.58;;
39276;SDS011;63149;48.086;-1.606;2022-09-02T18:07:54;2.05;;;1.83;;
39276;SDS011;63149;48.086;-1.606;2022-09-02T18:10:31;2.03;;;1.30;;
39276;SDS011;63149;48.086;-1.606;2022-09-02T18:13:01;2.45;;;1.45;;
39276;SDS011;63149;48.086;-1.606;2022-09-02T18:15:29;4.22;;;1.70;;
39276;SDS011;63149;48.086;-1.606;2022-09-02T18:18:02;3.63;;;1.50;;
39276;SDS011;63149;48.086;-1.606;2022-09-02T18:20:33;1.65;;;1.50;;
39276;SDS011;63149;48.086;-1.606;2022-09-02T18:23:13;1.50;;;1.40;;
39276;SDS011;63149;48.086;-1.606;2022-09-02T18:25:52;2.00;;;1.80;;
39276;SDS011;63149;48.086;-1.606;2022-09-02T18:28:33;3.38;;;1.58;;
39276;SDS011;63149;48.086;-1.606;2022-09-02T18:31:13;1.98;;;1.70;;
39276;SDS011;63149;48.086;-1.606;2022-09-02T18:33:57;3.90;;;1.60;;
39276;SDS011;63149;48.086;-1.606;2022-09-02T18:36:38;1.65;;;1.33;;
39276;SDS011;63149;48.086;-1.606;2022-09-02T18:39:12;4.63;;;1.73;;
39276;SDS011;63149;48.086;-1.606;2022-09-02T18:41:55;3.95;;;1.58;;
39276;SDS011;63149;48.086;-1.606;2022-09-02T18:44:30;2.75;;;2.03;;
39276;SDS011;63149;48.086;-1.606;2022-09-02T18:47:05;2.00;;;1.80;;
39276;SDS011;63149;48.086;-1.606;2022-09-02T18:49:36;3.20;;;1.70;;
39276;SDS011;63149;48.086;-1.606;2022-09-02T18:52:04;4.72;;;1.70;;
39276;SDS011;63149;48.086;-1.606;2022-09-02T18:54:36;1.80;;;1.70;;
39276;SDS011;63149;48.086;-1.606;2022-09-02T18:57:10;2.75;;;1.65;;
39276;SDS011;63149;48.086;-1.606;2022-09-02T18:59:39;3.67;;;1.90;;
39276;SDS011;63149;48.086;-1.606;2022-09-02T19:02:14;2.65;;;2.00;;
39276;SDS011;63149;48.086;-1.606;2022-09-02T19:04:47;2.88;;;1.83;;
39276;SDS011;63149;48.086;-1.606;2022-09-02T19:07:14;3.88;;;1.80;;
39276;SDS011;63149;48.086;-1.606;2022-09-02T19:10:01;3.28;;;2.40;;
39276;SDS011;63149;48.086;-1.606;2022-09-02T19:12:31;4.32;;;2.03;;
39276;SDS011;63149;48.086;-1.606;2022-09-02T19:15:00;3.22;;;2.30;;
39276;SDS011;63149;48.086;-1.606;2022-09-02T19:17:28;3.30;;;2.50;;
39276;SDS011;63149;48.086;-1.606;2022-09-02T19:19:55;4.13;;;2.42;;
39276;SDS011;63149;48.086;-1.606;2022-09-02T19:22:22;6.13;;;2.22;;
39276;SDS011;63149;48.086;-1.606;2022-09-02T19:24:53;5.15;;;2.90;;
39276;SDS011;63149;48.086;-1.606;2022-09-02T19:27:26;4.63;;;2.50;;
39276;SDS011;63149;48.086;-1.606;2022-09-02T19:30:01;2.90;;;2.30;;
39276;SDS011;63149;48.086;-1.606;2022-09-02T19:32:30;4.22;;;2.30;;
39276;SDS011;63149;48.086;-1.606;2022-09-02T19:35:04;2.53;;;2.30;;
39276;SDS011;63149;48.086;-1.606;2022-09-02T19:37:34;1.95;;;1.80;;
39276;SDS011;63149;48.086;-1.606;2022-09-02T19:40:04;2.63;;;2.35;;
39276;SDS011;63149;48.086;-1.606;2022-09-02T19:42:33;3.08;;;2.25;;
39276;SDS011;63149;48.086;-1.606;2022-09-02T19:45:02;3.08;;;2.50;;
39276;SDS011;63149;48.086;-1.606;2022-09-02T19:47:29;4.00;;;2.47;;
39276;SDS011;63149;48.086;-1.606;2022-09-02T19:49:58;3.63;;;2.55;;
39276;SDS011;63149;48.086;-1.606;2022-09-02T19:52:27;3.78;;;2.67;;
39276;SDS011;63149;48.086;-1.606;2022-09-02T19:54:55;5.00;;;2.78;;
39276;SDS011;63149;48.086;-1.606;2022-09-02T19:57:23;4.50;;;2.45;;
39276;SDS011;63149;48.086;-1.606;2022-09-02T19:59:51;2.60;;;2.40;;
39276;SDS011;63149;48.086;-1.606;2022-09-02T20:02:19;4.03;;;2.80;;
39276;SDS011;63149;48.086;-1.606;2022-09-02T20:04:46;7.40;;;2.80;;
39276;SDS011;63149;48.086;-1.606;2022-09-02T20:07:14;4.40;;;2.90;;
39276;SDS011;63149;48.086;-1.606;2022-09-02T20:09:41;4.55;;;3.03;;
39276;SDS011;63149;48.086;-1.606;2022-09-02T20:12:07;5.13;;;2.70;;
39276;SDS011;63149;48.086;-1.606;2022-09-02T20:14:36;4.43;;;2.95;;
39276;SDS011;63149;48.086;-1.606;2022-09-02T20:17:04;4.88;;;2.78;;
39276;SDS011;63149;48.086;-1.606;2022-09-02T20:19:36;6.75;;;2.88;;
39276;SDS011;63149;48.086;-1.606;2022-09-02T20:22:06;5.75;;;2.83;;
39276;SDS011;63149;48.086;-1.606;2022-09-02T20:24:35;3.35;;;2.70;;
39276;SDS011;63149;48.086;-1.606;2022-09-02T20:27:05;4.57;;;2.50;;
39276;SDS011;63149;48.086;-1.606;2022-09-02T20:29:50;4.10;;;2.85;;
39276;SDS011;63149;48.086;-1.606;2022-09-02T20:32:30;5.18;;;2.85;;
39276;SDS011;63149;48.086;-1.606;2022-09-02T20:35:12;2.70;;;2.40;;
39276;SDS011;63149;48.086;-1.606;2022-09-02T20:37:50;4.43;;;3.08;;
39276;SDS011;63149;48.086;-1.606;2022-09-02T20:40:24;4.03;;;2.70;;
39276;SDS011;63149;48.086;-1.606;2022-09-02T20:43:04;4.15;;;3.05;;